Time;durP1;ratioP1;P1;durP2;ratioP2;P2;SDS_P1;SDS_P2;PMS_P1;PMS_P2;Temp;Humidity;BMP_temperature;BMP_pressure;BME280_temperature;BME280_humidity;BME280_pressure;Samples;Min_cycle;Max_cycle;Signal;HPM_P1;HPM_P2
2021/04/22 00:00:13;;;;;;;3.47;1.30;;;6.60;99.90;;;;;;5040653;28;20417;-77
2021/04/22 00:02:39;;;;;;;1.35;1.25;;;6.50;99.90;;;;;;5012796;28;20406;-77
2021/04/22 00:05:25;;;;;;;1.50;1.30;;;6.50;99.90;;;;;;5020748;28;20423;-77
2021/04/22 00:07:52;;;;;;;1.42;1.20;;;6.40;99.90;;;;;;5021045;28;20475;-77
2021/04/22 00:10:19;;;;;;;1.70;1.60;;;6.40;99.90;;;;;;5039799;28;20477;-78
2021/04/22 00:12:45;;;;;;;5.80;1.77;;;6.30;99.90;;;;;;5006802;28;20412;-77
2021/04/22 00:15:18;;;;;;;1.10;1.00;;;6.20;99.90;;;;;;5021291;28;20458;-78
2021/04/22 00:17:45;;;;;;;1.38;1.27;;;6.20;99.90;;;;;;5043927;28;20514;-78
2021/04/22 00:20:12;;;;;;;2.88;1.48;;;6.30;99.90;;;;;;5024622;28;20411;-79
2021/04/22 00:22:38;;;;;;;2.83;1.60;;;6.10;99.90;;;;;;5013313;28;20457;-78
2021/04/22 00:25:04;;;;;;;3.00;1.75;;;6.00;99.90;;;;;;5031336;28;20406;-77
2021/04/22 00:27:30;;;;;;;3.47;1.77;;;6.00;99.90;;;;;;5015440;28;20410;-79
2021/04/22 00:29:56;;;;;;;4.32;1.65;;;6.00;99.90;;;;;;5020210;28;20409;-81
2021/04/22 00:32:21;;;;;;;2.08;1.50;;;5.90;99.90;;;;;;5040568;28;20410;-79
2021/04/22 00:34:47;;;;;;;3.90;1.60;;;5.90;99.90;;;;;;5046832;28;20368;-81
2021/04/22 00:37:13;;;;;;;2.45;1.38;;;5.90;99.90;;;;;;5023061;28;20410;-79
2021/04/22 00:39:39;;;;;;;1.65;1.50;;;5.90;99.90;;;;;;5034196;28;20408;-80
2021/04/22 00:42:05;;;;;;;2.63;1.33;;;5.80;99.90;;;;;;5050343;28;20399;-79
2021/04/22 00:44:31;;;;;;;3.35;1.42;;;5.80;99.90;;;;;;5046343;28;20412;-78
2021/04/22 00:46:56;;;;;;;6.50;1.70;;;5.70;99.90;;;;;;5030613;28;20488;-77
2021/04/22 00:49:22;;;;;;;4.97;1.85;;;5.80;99.90;;;;;;5044719;28;20415;-77
2021/04/22 00:51:48;;;;;;;1.77;1.50;;;5.70;99.90;;;;;;5029332;28;20415;-78
2021/04/22 00:54:14;;;;;;;2.22;1.65;;;5.60;99.90;;;;;;5029988;28;20527;-79
2021/04/22 00:56:40;;;;;;;2.13;1.63;;;5.50;99.90;;;;;;5027798;28;20530;-78
2021/04/22 00:59:05;;;;;;;5.50;1.67;;;5.50;99.90;;;;;;5034672;28;20399;-77
2021/04/22 01:01:31;;;;;;;2.17;1.55;;;5.40;99.90;;;;;;5050713;28;20403;-78
2021/04/22 01:03:57;;;;;;;2.28;1.73;;;5.40;99.90;;;;;;5031230;28;20389;-78
2021/04/22 01:06:23;;;;;;;1.90;1.50;;;5.40;99.90;;;;;;5033702;28;20398;-78
2021/04/22 01:08:48;;;;;;;4.20;1.70;;;5.30;99.90;;;;;;5013426;28;20398;-79
2021/04/22 01:11:14;;;;;;;2.88;1.42;;;5.30;99.90;;;;;;5020205;28;20399;-78
2021/04/22 01:13:40;;;;;;;4.57;1.73;;;5.20;99.90;;;;;;5015210;28;20441;-79
2021/04/22 01:16:06;;;;;;;4.93;1.67;;;5.20;99.90;;;;;;5030404;28;20389;-78
2021/04/22 01:18:32;;;;;;;3.93;1.40;;;5.20;99.90;;;;;;5042427;28;20415;-78
2021/04/22 01:20:58;;;;;;;2.55;1.85;;;5.40;99.90;;;;;;5022706;28;20433;-77
2021/04/22 01:23:23;;;;;;;3.75;1.73;;;5.10;99.90;;;;;;5021895;28;20525;-78
2021/04/22 01:25:50;;;;;;;5.63;1.90;;;5.10;99.90;;;;;;5031364;28;20401;-78
2021/04/22 01:28:17;;;;;;;2.00;1.40;;;5.10;99.90;;;;;;5039643;28;20479;-78
2021/04/22 01:30:50;;;;;;;2.00;1.50;;;5.10;99.90;;;;;;5032646;28;20821;-78
2021/04/22 01:33:18;;;;;;;4.97;1.70;;;5.00;99.90;;;;;;5027703;28;20394;-78
2021/04/22 01:35:45;;;;;;;3.33;1.77;;;5.00;99.90;;;;;;5025674;28;20405;-78
2021/04/22 01:38:11;;;;;;;2.73;1.60;;;4.90;99.90;;;;;;5046471;28;20814;-78
2021/04/22 01:40:38;;;;;;;2.50;1.60;;;4.80;99.90;;;;;;5022871;28;20419;-77
2021/04/22 01:43:03;;;;;;;1.42;1.30;;;4.80;99.90;;;;;;5024862;28;20402;-77
2021/04/22 01:45:29;;;;;;;3.40;1.73;;;4.80;99.90;;;;;;5022811;28;20401;-77
2021/04/22 01:47:55;;;;;;;5.00;1.90;;;4.60;99.90;;;;;;5042862;28;20412;-77
2021/04/22 01:50:25;;;;;;;3.17;1.70;;;4.60;99.90;;;;;;5052197;28;20390;-77
2021/04/22 01:52:52;;;;;;;5.90;2.00;;;4.50;99.90;;;;;;5037974;28;20443;-78
2021/04/22 01:55:23;;;;;;;3.20;1.77;;;4.40;99.90;;;;;;5041240;28;20454;-78
2021/04/22 01:57:50;;;;;;;3.70;2.00;;;4.40;99.90;;;;;;5031411;28;20410;-78
2021/04/22 02:00:39;;;;;;;3.13;2.08;;;4.40;99.90;;;;;;5046258;28;20395;-77
2021/04/22 02:03:06;;;;;;;1.73;1.63;;;4.30;99.90;;;;;;5047787;28;20395;-78
2021/04/22 02:05:32;;;;;;;4.40;1.85;;;4.30;99.90;;;;;;5028414;28;20415;-77
2021/04/22 02:07:58;;;;;;;3.60;2.38;;;4.30;99.90;;;;;;5041236;28;20405;-77
2021/04/22 02:10:23;;;;;;;4.22;2.38;;;4.30;99.90;;;;;;5037627;28;20783;-79
2021/04/22 02:12:49;;;;;;;2.87;2.20;;;4.20;99.90;;;;;;5011655;28;20410;-77
2021/04/22 02:15:18;;;;;;;3.00;1.98;;;4.20;99.90;;;;;;5038644;28;20450;-77
2021/04/22 02:17:44;;;;;;;2.78;2.10;;;4.30;99.90;;;;;;5033267;28;20406;-79
2021/04/22 02:20:11;;;;;;;4.18;1.90;;;4.20;99.90;;;;;;5052644;28;20492;-77
2021/04/22 02:22:36;;;;;;;2.88;2.03;;;4.00;99.90;;;;;;5068860;28;20381;-77
2021/04/22 02:25:04;;;;;;;3.38;1.90;;;4.00;99.90;;;;;;5042134;28;20468;-76
2021/04/22 02:27:30;;;;;;;3.00;1.83;;;4.00;99.90;;;;;;5037968;28;20411;-78
2021/04/22 02:29:56;;;;;;;2.35;2.03;;;3.90;99.90;;;;;;5046906;28;20412;-79
2021/04/22 02:32:22;;;;;;;5.00;2.40;;;3.70;99.90;;;;;;5016908;28;20483;-76
2021/04/22 02:34:47;;;;;;;2.47;2.03;;;4.00;99.90;;;;;;5003220;28;20478;-77
2021/04/22 02:37:13;;;;;;;4.30;2.28;;;3.70;99.90;;;;;;5007701;28;20466;-77
2021/04/22 02:39:39;;;;;;;4.43;2.37;;;3.60;99.90;;;;;;4999872;28;20400;-76
2021/04/22 02:42:05;;;;;;;3.60;2.23;;;3.40;99.90;;;;;;5004132;28;20419;-77
2021/04/22 02:44:30;;;;;;;3.13;2.03;;;3.60;99.90;;;;;;5036443;28;21092;-76
2021/04/22 02:46:56;;;;;;;2.67;1.90;;;3.60;99.90;;;;;;5013792;28;20397;-77
2021/04/22 02:49:22;;;;;;;3.97;2.20;;;3.50;99.90;;;;;;5010686;28;20424;-77
2021/04/22 02:51:47;;;;;;;3.47;1.97;;;3.50;99.90;;;;;;4991775;28;20413;-78
2021/04/22 02:54:13;;;;;;;4.78;2.25;;;3.40;99.90;;;;;;5046559;28;20426;-77
2021/04/22 02:56:39;;;;;;;3.27;1.97;;;3.50;99.90;;;;;;5042032;28;20407;-77
2021/04/22 02:59:04;;;;;;;3.55;2.20;;;3.40;99.90;;;;;;5031655;28;20412;-77
2021/04/22 03:01:30;;;;;;;4.78;2.35;;;3.30;99.90;;;;;;5029444;28;20383;-77
2021/04/22 03:03:56;;;;;;;1.70;1.60;;;3.20;99.90;;;;;;5024945;28;20469;-79
2021/04/22 03:06:22;;;;;;;3.63;2.10;;;3.20;99.90;;;;;;5053652;28;20402;-78
2021/04/22 03:08:47;;;;;;;2.07;1.70;;;3.20;99.90;;;;;;5030492;28;20475;-78
2021/04/22 03:11:13;;;;;;;5.68;2.17;;;3.20;99.90;;;;;;5038552;28;20383;-78
2021/04/22 03:13:39;;;;;;;2.60;1.83;;;3.20;99.90;;;;;;5043238;28;20410;-78
2021/04/22 03:16:05;;;;;;;3.90;1.90;;;3.10;99.90;;;;;;5029392;28;20762;-78
2021/04/22 03:18:31;;;;;;;4.47;2.05;;;3.00;99.90;;;;;;5021449;28;20407;-77
2021/04/22 03:20:57;;;;;;;3.93;2.10;;;3.10;99.90;;;;;;5020930;28;20399;-78
2021/04/22 03:23:23;;;;;;;3.38;2.17;;;3.00;99.90;;;;;;5028146;28;20388;-76
2021/04/22 03:25:48;;;;;;;3.35;2.40;;;3.10;99.90;;;;;;5057056;28;20389;-78
2021/04/22 03:28:14;;;;;;;2.87;2.00;;;3.00;99.90;;;;;;5043220;28;20386;-79
2021/04/22 03:30:40;;;;;;;3.20;2.28;;;3.00;99.90;;;;;;5020661;28;20434;-79
2021/04/22 03:33:06;;;;;;;7.67;2.20;;;3.00;99.90;;;;;;5038282;28;20397;-78
2021/04/22 03:35:35;;;;;;;6.07;2.15;;;3.10;99.90;;;;;;5016287;28;21004;-78
2021/04/22 03:38:00;;;;;;;7.15;2.28;;;3.10;99.90;;;;;;5037551;28;20408;-77
2021/04/22 03:40:26;;;;;;;3.97;2.30;;;3.20;99.90;;;;;;5045286;28;20387;-78
2021/04/22 03:42:53;;;;;;;3.50;2.27;;;3.20;99.90;;;;;;5038444;28;21033;-78
2021/04/22 03:45:19;;;;;;;2.58;1.90;;;3.20;99.90;;;;;;5037790;28;20392;-77
2021/04/22 03:47:44;;;;;;;5.30;2.42;;;3.20;99.90;;;;;;5046682;28;20395;-77
2021/04/22 03:50:11;;;;;;;3.07;2.20;;;3.30;99.90;;;;;;5018570;28;20766;-79
2021/04/22 03:52:37;;;;;;;3.30;2.17;;;3.30;99.90;;;;;;4989503;28;20943;-78
2021/04/22 03:55:04;;;;;;;3.17;2.17;;;3.30;99.90;;;;;;5031706;28;20405;-79
2021/04/22 03:57:30;;;;;;;2.78;2.20;;;3.30;99.90;;;;;;4995343;28;20483;-78
2021/04/22 03:59:56;;;;;;;6.20;2.28;;;3.30;99.90;;;;;;5049029;28;20401;-79
2021/04/22 04:02:21;;;;;;;2.58;2.03;;;3.30;99.90;;;;;;5003935;28;20391;-78
2021/04/22 04:04:47;;;;;;;3.40;2.60;;;3.40;99.90;;;;;;5020961;28;20960;-78
2021/04/22 04:07:13;;;;;;;3.50;2.27;;;3.40;99.90;;;;;;5028298;28;20490;-78
2021/04/22 04:09:38;;;;;;;4.53;2.00;;;3.50;99.90;;;;;;5016793;28;20903;-78
2021/04/22 04:12:05;;;;;;;5.50;2.47;;;3.50;99.90;;;;;;5010808;28;20430;-78
2021/04/22 04:14:32;;;;;;;2.97;2.20;;;3.50;99.90;;;;;;5027997;28;20496;-78
2021/04/22 04:16:58;;;;;;;3.38;1.90;;;3.60;99.90;;;;;;5029666;28;20797;-78
2021/04/22 04:19:24;;;;;;;3.10;2.30;;;3.50;99.90;;;;;;5030879;28;20447;-79
2021/04/22 04:21:49;;;;;;;2.77;2.27;;;3.50;99.90;;;;;;5026747;28;20399;-79
2021/04/22 04:24:15;;;;;;;3.90;2.60;;;3.70;99.90;;;;;;5015372;28;20389;-81
2021/04/22 04:26:41;;;;;;;3.50;2.50;;;3.70;99.90;;;;;;5019165;28;20395;-80
2021/04/22 04:29:06;;;;;;;5.70;2.20;;;3.70;99.90;;;;;;5024796;28;20476;-81
2021/04/22 04:31:32;;;;;;;3.30;2.20;;;3.70;99.90;;;;;;5013646;28;20401;-80
2021/04/22 04:33:58;;;;;;;3.55;2.08;;;3.70;99.90;;;;;;5027178;28;20404;-80
2021/04/22 04:36:23;;;;;;;5.30;2.40;;;3.70;99.90;;;;;;5011637;28;20399;-80
2021/04/22 04:38:49;;;;;;;4.35;2.13;;;3.80;99.90;;;;;;5026520;28;20401;-79
2021/04/22 04:41:15;;;;;;;2.80;2.22;;;3.80;99.90;;;;;;5041284;28;20719;-80
2021/04/22 04:43:40;;;;;;;2.80;2.30;;;3.90;99.90;;;;;;5032847;28;20965;-79
2021/04/22 04:46:06;;;;;;;4.43;2.40;;;4.00;99.90;;;;;;5020823;28;20399;-79
2021/04/22 04:48:32;;;;;;;5.03;1.80;;;4.00;99.90;;;;;;5010872;28;21032;-79
2021/04/22 04:50:57;;;;;;;2.50;2.27;;;4.00;99.90;;;;;;5008513;28;20391;-80
2021/04/22 04:53:23;;;;;;;4.72;2.50;;;4.00;99.90;;;;;;5018154;28;20884;-80
2021/04/22 04:55:48;;;;;;;4.43;2.10;;;4.10;99.90;;;;;;5011149;28;20456;-81
2021/04/22 04:58:14;;;;;;;3.85;2.03;;;4.10;99.90;;;;;;5032896;28;20396;-80
2021/04/22 05:00:40;;;;;;;4.40;2.28;;;4.10;99.90;;;;;;5013636;28;20404;-79
2021/04/22 05:03:05;;;;;;;3.77;2.13;;;4.20;99.90;;;;;;5024418;28;20757;-79
2021/04/22 05:05:31;;;;;;;6.22;1.98;;;4.30;99.90;;;;;;5030432;28;20476;-79
2021/04/22 05:07:57;;;;;;;3.80;2.50;;;4.30;99.90;;;;;;5011007;28;20463;-79
2021/04/22 05:10:22;;;;;;;4.83;2.40;;;4.40;99.90;;;;;;5010088;28;20398;-79
2021/04/22 05:12:48;;;;;;;2.97;2.00;;;4.30;99.90;;;;;;5049292;28;20801;-79
2021/04/22 05:15:14;;;;;;;3.87;2.10;;;4.30;99.90;;;;;;5017613;28;20470;-79
2021/04/22 05:17:40;;;;;;;4.80;2.57;;;4.40;99.90;;;;;;5012729;28;20464;-79
2021/04/22 05:20:06;;;;;;;4.35;2.55;;;4.40;99.90;;;;;;5014276;28;20399;-80
2021/04/22 05:22:32;;;;;;;2.67;2.13;;;4.40;99.90;;;;;;5011449;28;20968;-79
2021/04/22 05:24:58;;;;;;;3.60;2.30;;;4.50;99.90;;;;;;5027225;28;20403;-78
2021/04/22 05:27:23;;;;;;;4.32;2.20;;;4.50;99.90;;;;;;5016835;28;20409;-80
2021/04/22 05:29:49;;;;;;;7.13;2.20;;;4.40;99.90;;;;;;5013012;28;20618;-79
2021/04/22 05:32:15;;;;;;;3.97;2.47;;;4.50;99.90;;;;;;5021432;28;20437;-80
2021/04/22 05:34:41;;;;;;;4.53;2.40;;;4.40;99.90;;;;;;5027860;28;20404;-80
2021/04/22 05:37:06;;;;;;;3.22;2.22;;;4.40;99.90;;;;;;5013739;28;20413;-79
2021/04/22 05:39:32;;;;;;;3.80;2.40;;;4.50;99.90;;;;;;5012550;28;20637;-79
2021/04/22 05:41:58;;;;;;;3.17;2.07;;;4.40;99.90;;;;;;4994126;28;20422;-79
2021/04/22 05:44:25;;;;;;;3.80;2.58;;;4.60;99.90;;;;;;5016554;28;20410;-79
2021/04/22 05:46:51;;;;;;;3.78;2.30;;;4.60;99.90;;;;;;5011794;28;20408;-79
2021/04/22 05:49:16;;;;;;;4.93;2.20;;;4.60;99.90;;;;;;5009676;28;20407;-80
2021/04/22 05:51:42;;;;;;;5.17;2.57;;;4.60;99.90;;;;;;5021544;28;20498;-79
2021/04/22 05:54:09;;;;;;;6.85;2.65;;;4.70;99.90;;;;;;5006815;28;20414;-80
2021/04/22 05:56:34;;;;;;;3.47;2.53;;;4.70;99.90;;;;;;5025500;28;20426;-79
2021/04/22 05:59:00;;;;;;;3.23;2.40;;;4.70;99.90;;;;;;5022220;28;20829;-79
2021/04/22 06:01:26;;;;;;;3.70;2.47;;;4.80;99.90;;;;;;5013211;28;20443;-78
2021/04/22 06:03:52;;;;;;;3.28;2.50;;;5.10;99.90;;;;;;4994329;28;20428;-79
2021/04/22 06:06:17;;;;;;;4.93;2.53;;;4.90;99.90;;;;;;5010079;28;20515;-79
2021/04/22 06:08:43;;;;;;;3.70;2.30;;;5.10;99.90;;;;;;5005318;28;20413;-80
2021/04/22 06:11:09;;;;;;;4.00;2.75;;;5.20;99.90;;;;;;4993891;28;20403;-79
2021/04/22 06:13:35;;;;;;;5.18;2.50;;;5.30;99.90;;;;;;5025846;28;20406;-78
2021/04/22 06:16:01;;;;;;;2.60;1.98;;;5.50;99.90;;;;;;4976362;28;20426;-77
2021/04/22 06:18:26;;;;;;;5.63;2.80;;;5.70;99.90;;;;;;5006045;28;20426;-78
2021/04/22 06:20:52;;;;;;;4.55;2.17;;;5.90;99.90;;;;;;5012486;28;20403;-78
2021/04/22 06:23:18;;;;;;;3.70;2.58;;;6.00;99.90;;;;;;5027356;28;20567;-78
2021/04/22 06:25:44;;;;;;;6.63;2.30;;;6.00;99.90;;;;;;5012018;28;20749;-77
2021/04/22 06:28:09;;;;;;;3.97;2.38;;;6.20;99.90;;;;;;5025764;28;20474;-79
2021/04/22 06:30:35;;;;;;;3.03;2.17;;;6.10;99.90;;;;;;5035447;28;20912;-78
2021/04/22 06:33:01;;;;;;;5.20;2.30;;;6.10;99.90;;;;;;5024887;28;20415;-78
2021/04/22 06:35:27;;;;;;;2.17;1.77;;;6.20;99.90;;;;;;5026537;28;20399;-78
2021/04/22 06:37:53;;;;;;;4.50;2.20;;;6.10;99.90;;;;;;5008765;28;20542;-79
2021/04/22 06:40:20;;;;;;;6.72;2.60;;;6.20;99.90;;;;;;5028204;28;20447;-79
2021/04/22 06:42:46;;;;;;;4.53;2.60;;;6.20;99.90;;;;;;5017588;28;20457;-79
2021/04/22 06:45:12;;;;;;;3.60;2.20;;;6.10;99.90;;;;;;5008803;28;20451;-79
2021/04/22 06:47:38;;;;;;;4.07;2.50;;;6.10;99.90;;;;;;5002486;28;20413;-79
2021/04/22 06:50:07;;;;;;;3.05;2.10;;;6.20;99.90;;;;;;5011221;28;20891;-80
2021/04/22 06:52:34;;;;;;;4.57;2.20;;;6.30;99.90;;;;;;4996530;28;20959;-80
2021/04/22 06:55:00;;;;;;;2.40;2.05;;;6.20;99.90;;;;;;5039313;28;20417;-80
2021/04/22 06:57:26;;;;;;;5.07;2.70;;;6.20;99.90;;;;;;5048797;28;20425;-78
2021/04/22 06:59:51;;;;;;;5.13;2.10;;;6.30;99.90;;;;;;5028674;28;20835;-80
2021/04/22 07:02:17;;;;;;;4.93;2.83;;;6.30;99.90;;;;;;5027154;28;20408;-80
2021/04/22 07:04:44;;;;;;;5.35;2.47;;;6.50;99.90;;;;;;5024395;28;20452;-79
2021/04/22 07:07:09;;;;;;;6.00;2.20;;;6.60;99.90;;;;;;5042961;28;20463;-80
2021/04/22 07:09:35;;;;;;;4.43;2.20;;;6.60;99.90;;;;;;5014013;28;20403;-81
2021/04/22 07:12:05;;;;;;;2.60;1.92;;;6.60;99.90;;;;;;5010936;28;20752;-81
2021/04/22 07:14:31;;;;;;;5.43;2.55;;;6.40;99.90;;;;;;5047763;28;20381;-80
2021/04/22 07:16:56;;;;;;;8.10;2.50;;;6.60;99.90;;;;;;5031852;28;20495;-80
2021/04/22 07:19:22;;;;;;;2.88;2.30;;;6.90;99.90;;;;;;5032961;28;21154;-79
2021/04/22 07:21:48;;;;;;;3.75;2.08;;;6.80;99.90;;;;;;5000697;28;20486;-80
2021/04/22 07:24:13;;;;;;;4.27;2.20;;;6.80;99.90;;;;;;5026377;28;20458;-80
2021/04/22 07:26:39;;;;;;;3.50;2.30;;;6.70;99.90;;;;;;5016939;28;20569;-80
2021/04/22 07:29:05;;;;;;;2.97;1.90;;;6.60;99.90;;;;;;5038071;28;20431;-80
2021/04/22 07:31:31;;;;;;;3.97;2.20;;;6.70;99.90;;;;;;5045686;28;20413;-79
2021/04/22 07:33:56;;;;;;;3.50;2.20;;;6.80;99.90;;;;;;5035215;28;21042;-79
2021/04/22 07:36:22;;;;;;;3.33;2.40;;;6.90;99.90;;;;;;5023095;28;20395;-80
2021/04/22 07:38:48;;;;;;;3.17;2.27;;;6.90;99.90;;;;;;5022754;28;20415;-80
2021/04/22 07:41:14;;;;;;;4.07;2.70;;;6.70;99.90;;;;;;5009070;28;20403;-78
2021/04/22 07:43:40;;;;;;;3.83;2.60;;;7.00;99.90;;;;;;4997849;28;20392;-79
2021/04/22 07:46:06;;;;;;;3.45;2.20;;;7.20;99.90;;;;;;5047887;28;20453;-79
2021/04/22 07:48:32;;;;;;;2.45;1.95;;;7.30;99.90;;;;;;5032781;28;20392;-79
2021/04/22 07:50:59;;;;;;;3.80;2.28;;;7.60;99.90;;;;;;5031795;28;20506;-79
2021/04/22 07:53:24;;;;;;;4.25;2.40;;;7.50;99.90;;;;;;4997822;28;20451;-79
2021/04/22 07:55:52;;;;;;;5.50;2.30;;;7.60;99.90;;;;;;5016184;28;20742;-80
2021/04/22 07:58:17;;;;;;;3.17;1.95;;;7.70;99.90;;;;;;5029838;28;20483;-81
2021/04/22 08:00:44;;;;;;;3.30;1.90;;;7.60;99.90;;;;;;5012762;28;20466;-79
2021/04/22 08:03:13;;;;;;;3.80;2.10;;;7.60;99.90;;;;;;4994990;28;20436;-80
2021/04/22 08:05:39;;;;;;;3.13;2.10;;;7.50;99.90;;;;;;4997281;28;20393;-80
2021/04/22 08:08:05;;;;;;;3.30;2.03;;;7.50;99.90;;;;;;4974849;28;20406;-79
2021/04/22 08:10:32;;;;;;;5.13;2.28;;;7.70;99.90;;;;;;5012319;28;20421;-79
2021/04/22 08:13:01;;;;;;;2.65;2.30;;;8.10;99.90;;;;;;5016839;28;20383;-80
2021/04/22 08:15:28;;;;;;;5.53;2.00;;;8.30;99.90;;;;;;5000872;28;20407;-80
2021/04/22 08:17:53;;;;;;;4.22;2.20;;;8.30;99.90;;;;;;5025433;28;20399;-79
2021/04/22 08:20:24;;;;;;;5.43;2.03;;;8.10;99.90;;;;;;4986684;28;20750;-80
2021/04/22 08:22:49;;;;;;;3.20;2.03;;;8.20;99.90;;;;;;5010111;28;20441;-79
2021/04/22 08:25:19;;;;;;;5.32;2.08;;;8.00;99.90;;;;;;5007111;28;20477;-80
2021/04/22 08:27:49;;;;;;;3.42;2.25;;;8.30;99.90;;;;;;5038220;28;20397;-79
2021/04/22 08:30:18;;;;;;;3.60;1.83;;;8.60;99.90;;;;;;5046469;28;20428;-80
2021/04/22 08:32:43;;;;;;;3.05;2.15;;;8.60;99.90;;;;;;5028815;28;20409;-80
2021/04/22 08:35:10;;;;;;;2.73;2.40;;;8.90;99.90;;;;;;5017939;28;20964;-80
2021/04/22 08:37:36;;;;;;;2.33;1.80;;;8.50;99.90;;;;;;5010853;28;20435;-80
2021/04/22 08:40:05;;;;;;;2.08;1.88;;;8.50;99.90;;;;;;5013404;28;20422;-79
2021/04/22 08:42:31;;;;;;;2.70;2.07;;;8.40;99.90;;;;;;5032031;28;20761;-80
2021/04/22 08:44:59;;;;;;;3.95;2.05;;;8.50;99.90;;;;;;5012498;28;20484;-80
2021/04/22 08:47:25;;;;;;;1.70;1.60;;;8.30;99.90;;;;;;5031263;28;20451;-80
2021/04/22 08:49:50;;;;;;;3.20;1.80;;;8.30;99.90;;;;;;5013879;28;20841;-80
2021/04/22 08:52:16;;;;;;;4.55;2.22;;;8.10;99.90;;;;;;5015649;28;20417;-80
2021/04/22 08:54:42;;;;;;;7.72;2.28;;;8.00;99.90;;;;;;5015412;28;20520;-79
2021/04/22 08:57:07;;;;;;;2.47;1.97;;;8.10;99.90;;;;;;4996144;28;20421;-80
2021/04/22 08:59:33;;;;;;;2.05;1.70;;;8.20;99.90;;;;;;5013584;28;20410;-80
2021/04/22 09:01:59;;;;;;;3.80;2.10;;;8.40;99.90;;;;;;5040803;28;20404;-81
2021/04/22 09:04:24;;;;;;;2.40;1.80;;;8.70;99.90;;;;;;5027040;28;20898;-77
2021/04/22 09:06:50;;;;;;;2.47;2.10;;;8.80;99.90;;;;;;5030323;28;20397;-76
2021/04/22 09:09:16;;;;;;;2.43;2.03;;;8.80;99.90;;;;;;5037265;28;20462;-74
2021/04/22 09:11:44;;;;;;;2.27;2.00;;;8.90;99.90;;;;;;5012910;28;20403;-76
2021/04/22 09:14:17;;;;;;;3.83;2.20;;;8.80;99.90;;;;;;5029799;28;20446;-77
2021/04/22 09:16:43;;;;;;;2.83;1.85;;;8.50;99.90;;;;;;5024442;28;20481;-76
2021/04/22 09:19:14;;;;;;;3.58;2.33;;;8.40;99.90;;;;;;5027534;28;20490;-77
2021/04/22 09:21:43;;;;;;;3.40;2.10;;;8.20;99.90;;;;;;5036830;28;20474;-76
2021/04/22 09:24:14;;;;;;;2.35;1.98;;;8.20;99.90;;;;;;5019770;28;20405;-75
2021/04/22 09:26:50;;;;;;;5.88;2.20;;;8.30;99.90;;;;;;5027367;28;20404;-78
2021/04/22 09:29:35;;;;;;;6.18;2.28;;;8.70;99.90;;;;;;5046436;28;20473;-76
2021/04/22 09:32:12;;;;;;;5.70;2.13;;;9.00;99.90;;;;;;5023943;28;20483;-75
2021/04/22 09:34:40;;;;;;;4.65;2.00;;;8.80;99.90;;;;;;5038211;28;20901;-76
2021/04/22 09:37:06;;;;;;;3.45;2.13;;;8.80;99.90;;;;;;5030106;28;20393;-76
2021/04/22 09:39:33;;;;;;;3.70;2.23;;;9.00;99.90;;;;;;5029624;28;20409;-77
2021/04/22 09:42:00;;;;;;;3.35;2.03;;;9.40;99.90;;;;;;5003211;28;20917;-75
2021/04/22 09:44:26;;;;;;;5.97;1.98;;;9.70;99.90;;;;;;5031807;28;20400;-78
2021/04/22 09:47:06;;;;;;;3.28;2.35;;;9.70;99.90;;;;;;5044823;28;20395;-79
2021/04/22 09:49:32;;;;;;;2.28;1.90;;;9.80;99.90;;;;;;5003475;28;20398;-80
2021/04/22 09:52:06;;;;;;;2.22;1.90;;;9.90;99.90;;;;;;5010933;28;20844;-79
2021/04/22 09:54:32;;;;;;;4.25;2.10;;;9.60;99.90;;;;;;5025401;28;20403;-79
2021/04/22 09:56:57;;;;;;;3.87;1.80;;;9.70;99.90;;;;;;5035360;28;20458;-79
2021/04/22 09:59:24;;;;;;;2.13;1.92;;;10.00;98.60;;;;;;5043054;28;21005;-79
2021/04/22 10:02:04;;;;;;;3.05;2.08;;;10.20;99.00;;;;;;5027611;28;20390;-78
2021/04/22 10:04:33;;;;;;;1.40;1.30;;;10.10;98.30;;;;;;5025848;28;20489;-80
2021/04/22 10:06:59;;;;;;;1.88;1.65;;;9.90;99.90;;;;;;5026647;28;20482;-79
2021/04/22 10:09:32;;;;;;;4.00;1.97;;;9.90;99.90;;;;;;5013605;28;20974;-79
2021/04/22 10:11:58;;;;;;;4.32;1.88;;;9.60;99.50;;;;;;5038133;28;20512;-80
2021/04/22 10:14:31;;;;;;;2.70;2.08;;;9.70;98.90;;;;;;4993982;28;20817;-80
2021/04/22 10:16:57;;;;;;;2.30;1.67;;;10.10;98.60;;;;;;5028285;28;20402;-80
2021/04/22 10:19:22;;;;;;;2.20;1.70;;;10.40;99.90;;;;;;4982352;28;20383;-79
2021/04/22 10:21:48;;;;;;;3.17;1.77;;;10.60;97.80;;;;;;5009405;28;20410;-79
2021/04/22 10:24:17;;;;;;;3.22;2.03;;;10.20;97.90;;;;;;5017634;28;20405;-80
2021/04/22 10:26:44;;;;;;;3.42;1.90;;;10.00;99.10;;;;;;5045353;28;20393;-79
2021/04/22 10:29:09;;;;;;;3.10;2.15;;;10.00;98.30;;;;;;5022067;28;20461;-81
2021/04/22 10:31:36;;;;;;;2.05;1.60;;;9.80;97.80;;;;;;5022928;28;20903;-79
2021/04/22 10:34:02;;;;;;;2.95;1.63;;;10.20;99.90;;;;;;5021981;28;20477;-79
2021/04/22 10:36:30;;;;;;;2.47;2.03;;;10.30;99.30;;;;;;5009821;28;20533;-80
2021/04/22 10:38:56;;;;;;;2.10;1.83;;;10.20;95.40;;;;;;5013366;28;20398;-79
2021/04/22 10:41:21;;;;;;;4.40;1.85;;;10.30;95.00;;;;;;5011204;28;20461;-79
2021/04/22 10:43:48;;;;;;;5.70;2.37;;;10.90;98.30;;;;;;5012275;28;20887;-78
2021/04/22 10:46:13;;;;;;;5.35;2.00;;;11.20;96.00;;;;;;5007403;28;20411;-78
2021/04/22 10:48:39;;;;;;;3.00;1.58;;;11.20;94.60;;;;;;5012937;28;20377;-79
2021/04/22 10:51:05;;;;;;;2.35;2.00;;;11.10;93.50;;;;;;5050084;28;20405;-80
2021/04/22 10:53:43;;;;;;;4.03;1.80;;;10.90;94.00;;;;;;5013989;28;20487;-80
2021/04/22 10:56:09;;;;;;;3.00;2.00;;;11.10;94.60;;;;;;5011158;28;20408;-79
2021/04/22 10:58:45;;;;;;;3.77;1.90;;;11.30;95.90;;;;;;5035811;28;20465;-78
2021/04/22 11:01:12;;;;;;;2.33;1.83;;;10.90;94.40;;;;;;5026573;28;20539;-78
2021/04/22 11:03:43;;;;;;;2.10;1.65;;;11.30;95.60;;;;;;5010419;28;20482;-79
2021/04/22 11:06:12;;;;;;;2.53;1.83;;;11.50;90.80;;;;;;5026285;28;20406;-78
2021/04/22 11:08:39;;;;;;;2.95;1.80;;;11.70;90.40;;;;;;5037049;28;20498;-77
2021/04/22 11:11:20;;;;;;;4.88;1.70;;;11.60;87.50;;;;;;5025331;28;20827;-78
2021/04/22 11:13:46;;;;;;;3.15;1.65;;;11.80;91.30;;;;;;5032126;28;20403;-80
2021/04/22 11:16:12;;;;;;;2.58;1.80;;;11.50;90.00;;;;;;5010869;28;20456;-78
2021/04/22 11:18:45;;;;;;;2.40;1.60;;;11.60;92.10;;;;;;5011868;28;20387;-79
2021/04/22 11:21:26;;;;;;;2.60;1.60;;;12.00;93.10;;;;;;5000874;28;20399;-79
2021/04/22 11:23:59;;;;;;;3.88;2.13;;;12.50;90.10;;;;;;5027047;28;20385;-80
2021/04/22 11:26:33;;;;;;;1.70;1.60;;;12.50;85.30;;;;;;5024683;28;20406;-78
2021/04/22 11:29:17;;;;;;;1.63;1.30;;;12.50;87.90;;;;;;5012518;28;20389;-80
2021/04/22 11:31:51;;;;;;;4.35;1.85;;;12.40;86.20;;;;;;5020178;28;20903;-80
2021/04/22 11:34:17;;;;;;;3.40;1.70;;;12.40;84.50;;;;;;5006772;28;20466;-78
2021/04/22 11:36:50;;;;;;;2.93;1.90;;;12.30;84.00;;;;;;5027025;28;20486;-80
2021/04/22 11:39:16;;;;;;;2.30;1.90;;;11.70;87.10;;;;;;5039615;28;20417;-81
2021/04/22 11:41:55;;;;;;;1.52;1.42;;;11.50;87.00;;;;;;5017607;28;20416;-80
2021/04/22 11:44:31;;;;;;;4.00;1.95;;;12.10;89.40;;;;;;5009461;28;20397;-80
2021/04/22 11:46:57;;;;;;;2.58;1.58;;;12.20;85.30;;;;;;5020226;28;20463;-78
2021/04/22 11:49:28;;;;;;;3.30;1.97;;;11.90;85.80;;;;;;4994893;28;20397;-78
2021/04/22 11:51:53;;;;;;;2.90;1.60;;;12.20;89.10;;;;;;5000671;28;20891;-77
2021/04/22 11:54:32;;;;;;;5.43;1.83;;;12.40;83.80;;;;;;5038720;28;20400;-79
2021/04/22 11:57:03;;;;;;;2.13;1.70;;;12.80;81.50;;;;;;5013983;28;20393;-80
2021/04/22 11:59:30;;;;;;;1.65;1.55;;;12.80;83.80;;;;;;5019277;28;20441;-83
2021/04/22 12:02:04;;;;;;;1.92;1.40;;;12.30;78.30;;;;;;5040163;28;20394;-82
2021/04/22 12:04:43;;;;;;;2.03;1.83;;;12.40;86.20;;;;;;5005295;28;20387;-81
2021/04/22 12:07:14;;;;;;;7.57;1.70;;;12.70;82.50;;;;;;5032179;28;20399;-81
2021/04/22 12:09:47;;;;;;;2.08;1.77;;;13.00;80.90;;;;;;5042962;28;20935;-80
2021/04/22 12:12:18;;;;;;;4.32;1.88;;;13.10;78.90;;;;;;5023150;28;20405;-80
2021/04/22 12:14:45;;;;;;;1.60;1.45;;;12.90;75.00;;;;;;5040857;28;20453;-83
2021/04/22 12:17:22;;;;;;;1.87;1.70;;;13.20;73.00;;;;;;5023157;28;20390;-81
2021/04/22 12:19:52;;;;;;;2.95;1.40;;;13.30;79.40;;;;;;5013750;28;20478;-79
2021/04/22 12:22:41;;;;;;;2.67;1.67;;;13.80;76.40;;;;;;5015747;28;20387;-80
2021/04/22 12:25:14;;;;;;;2.30;1.70;;;13.60;77.90;;;;;;5002659;28;20401;-79
2021/04/22 12:27:47;;;;;;;2.30;1.80;;;12.90;72.50;;;;;;5025430;28;20412;-80
2021/04/22 12:30:15;;;;;;;3.10;1.73;;;12.60;76.90;;;;;;5014692;28;20488;-80
2021/04/22 12:32:51;;;;;;;1.73;1.48;;;12.90;78.50;;;;;;5034538;28;20440;-79
2021/04/22 12:35:18;;;;;;;3.00;1.50;;;13.50;75.70;;;;;;5041350;28;20411;-82
2021/04/22 12:37:44;;;;;;;3.22;1.75;;;13.60;78.50;;;;;;5024800;28;20726;-80
2021/04/22 12:40:10;;;;;;;1.63;1.52;;;13.20;76.60;;;;;;5016361;28;20408;-80
2021/04/22 12:42:36;;;;;;;4.85;1.73;;;13.30;76.00;;;;;;5017500;28;20899;-78
2021/04/22 12:45:09;;;;;;;2.60;1.47;;;13.00;75.30;;;;;;5016729;28;20399;-79
2021/04/22 12:47:36;;;;;;;2.65;1.70;;;12.70;75.80;;;;;;5027505;28;20924;-80
2021/04/22 12:50:03;;;;;;;1.88;1.65;;;12.60;76.50;;;;;;5037908;28;20446;-79
2021/04/22 12:52:29;;;;;;;2.03;1.38;;;12.40;78.70;;;;;;5014973;28;20402;-78
2021/04/22 12:54:59;;;;;;;8.00;1.83;;;12.20;77.30;;;;;;5001333;28;20373;-79